sensor_id;sensor_type;location;lat;lon;timestamp;P1;durP1;ratioP1;P2;durP2;ratioP2
43998;SDS011;51319;52.162;5.302;2023-05-08T00:01:51;15.82;;;13.35;;
43998;SDS011;51319;52.162;5.302;2023-05-08T00:04:18;18.50;;;12.65;;
43998;SDS011;51319;52.162;5.302;2023-05-08T00:06:46;17.15;;;13.95;;
43998;SDS011;51319;52.162;5.302;2023-05-08T00:09:13;58.28;;;15.50;;
43998;SDS011;51319;52.162;5.302;2023-05-08T00:11:40;312.85;;;20.55;;
43998;SDS011;51319;52.162;5.302;2023-05-08T00:14:07;175.48;;;18.55;;
43998;SDS011;51319;52.162;5.302;2023-05-08T00:16:34;178.50;;;17.10;;
43998;SDS011;51319;52.162;5.302;2023-05-08T00:19:02;127.95;;;16.23;;
43998;SDS011;51319;52.162;5.302;2023-05-08T00:21:29;150.20;;;17.00;;
43998;SDS011;51319;52.162;5.302;2023-05-08T00:23:56;91.55;;;15.43;;
43998;SDS011;51319;52.162;5.302;2023-05-08T00:26:23;30.98;;;14.65;;
43998;SDS011;51319;52.162;5.302;2023-05-08T00:28:51;29.95;;;14.43;;
43998;SDS011;51319;52.162;5.302;2023-05-08T00:31:19;89.05;;;15.98;;
43998;SDS011;51319;52.162;5.302;2023-05-08T00:33:46;72.15;;;15.48;;
43998;SDS011;51319;52.162;5.302;2023-05-08T00:36:13;76.82;;;15.82;;
43998;SDS011;51319;52.162;5.302;2023-05-08T00:38:41;66.75;;;16.13;;
43998;SDS011;51319;52.162;5.302;2023-05-08T00:41:08;42.20;;;16.20;;
43998;SDS011;51319;52.162;5.302;2023-05-08T00:43:35;40.83;;;14.20;;
43998;SDS011;51319;52.162;5.302;2023-05-08T00:46:02;53.35;;;14.38;;
43998;SDS011;51319;52.162;5.302;2023-05-08T00:48:31;51.58;;;14.30;;
43998;SDS011;51319;52.162;5.302;2023-05-08T00:51:00;30.80;;;14.55;;
43998;SDS011;51319;52.162;5.302;2023-05-08T00:53:32;29.20;;;13.75;;
43998;SDS011;51319;52.162;5.302;2023-05-08T00:56:03;32.00;;;12.57;;
43998;SDS011;51319;52.162;5.302;2023-05-08T00:58:31;56.42;;;12.98;;
43998;SDS011;51319;52.162;5.302;2023-05-08T01:00:58;26.45;;;11.10;;
43998;SDS011;51319;52.162;5.302;2023-05-08T01:03:27;224.63;;;15.35;;
43998;SDS011;51319;52.162;5.302;2023-05-08T01:05:56;84.28;;;13.60;;
43998;SDS011;51319;52.162;5.302;2023-05-08T01:08:24;59.42;;;13.07;;
43998;SDS011;51319;52.162;5.302;2023-05-08T01:10:57;110.63;;;13.35;;
43998;SDS011;51319;52.162;5.302;2023-05-08T01:25:35;69.75;;;11.40;;
43998;SDS011;51319;52.162;5.302;2023-05-08T01:33:50;69.43;;;12.57;;
43998;SDS011;51319;52.162;5.302;2023-05-08T01:36:41;70.68;;;12.30;;
43998;SDS011;51319;52.162;5.302;2023-05-08T01:39:41;110.53;;;12.32;;
43998;SDS011;51319;52.162;5.302;2023-05-08T01:42:30;36.03;;;12.27;;
43998;SDS011;51319;52.162;5.302;2023-05-08T01:45:22;100.07;;;12.88;;
43998;SDS011;51319;52.162;5.302;2023-05-08T01:48:02;131.15;;;13.68;;
43998;SDS011;51319;52.162;5.302;2023-05-08T01:50:32;120.40;;;13.90;;
43998;SDS011;51319;52.162;5.302;2023-05-08T01:53:08;130.45;;;14.32;;
43998;SDS011;51319;52.162;5.302;2023-05-08T01:55:42;72.93;;;12.57;;
43998;SDS011;51319;52.162;5.302;2023-05-08T01:58:13;90.80;;;13.52;;
43998;SDS011;51319;52.162;5.302;2023-05-08T02:00:41;55.42;;;12.57;;
43998;SDS011;51319;52.162;5.302;2023-05-08T02:03:10;46.10;;;12.45;;
43998;SDS011;51319;52.162;5.302;2023-05-08T02:05:41;90.80;;;13.25;;
43998;SDS011;51319;52.162;5.302;2023-05-08T02:08:10;90.03;;;14.13;;
43998;SDS011;51319;52.162;5.302;2023-05-08T02:10:40;76.90;;;13.65;;
43998;SDS011;51319;52.162;5.302;2023-05-08T02:13:09;28.42;;;14.30;;
43998;SDS011;51319;52.162;5.302;2023-05-08T02:15:37;129.63;;;16.23;;
43998;SDS011;51319;52.162;5.302;2023-05-08T02:18:07;97.20;;;16.17;;
43998;SDS011;51319;52.162;5.302;2023-05-08T02:23:05;161.88;;;15.73;;
43998;SDS011;51319;52.162;5.302;2023-05-08T02:25:34;74.28;;;15.27;;
43998;SDS011;51319;52.162;5.302;2023-05-08T02:28:01;48.85;;;14.38;;
43998;SDS011;51319;52.162;5.302;2023-05-08T02:30:29;57.63;;;14.07;;
43998;SDS011;51319;52.162;5.302;2023-05-08T02:32:56;43.35;;;15.40;;
43998;SDS011;51319;52.162;5.302;2023-05-08T02:35:26;28.98;;;13.85;;
43998;SDS011;51319;52.162;5.302;2023-05-08T02:37:55;62.70;;;14.13;;
43998;SDS011;51319;52.162;5.302;2023-05-08T02:40:25;34.92;;;13.30;;
43998;SDS011;51319;52.162;5.302;2023-05-08T02:42:54;33.97;;;12.52;;
43998;SDS011;51319;52.162;5.302;2023-05-08T02:45:24;33.63;;;13.60;;
43998;SDS011;51319;52.162;5.302;2023-05-08T02:47:59;18.77;;;13.15;;
43998;SDS011;51319;52.162;5.302;2023-05-08T02:53:05;92.97;;;15.30;;
43998;SDS011;51319;52.162;5.302;2023-05-08T02:55:45;191.85;;;16.67;;
43998;SDS011;51319;52.162;5.302;2023-05-08T02:58:18;171.23;;;17.45;;
43998;SDS011;51319;52.162;5.302;2023-05-08T03:01:01;243.98;;;19.35;;
43998;SDS011;51319;52.162;5.302;2023-05-08T03:03:39;165.07;;;18.05;;
43998;SDS011;51319;52.162;5.302;2023-05-08T03:06:14;149.05;;;17.58;;
43998;SDS011;51319;52.162;5.302;2023-05-08T03:08:45;75.15;;;14.93;;
43998;SDS011;51319;52.162;5.302;2023-05-08T03:11:15;165.50;;;18.83;;
43998;SDS011;51319;52.162;5.302;2023-05-08T03:13:47;198.25;;;20.08;;
43998;SDS011;51319;52.162;5.302;2023-05-08T03:16:17;203.38;;;19.95;;
43998;SDS011;51319;52.162;5.302;2023-05-08T03:18:50;333.30;;;21.38;;
43998;SDS011;51319;52.162;5.302;2023-05-08T03:21:20;190.13;;;19.67;;
43998;SDS011;51319;52.162;5.302;2023-05-08T03:23:50;211.98;;;19.60;;
43998;SDS011;51319;52.162;5.302;2023-05-08T03:26:20;163.27;;;17.90;;
43998;SDS011;51319;52.162;5.302;2023-05-08T03:28:47;124.00;;;17.35;;
43998;SDS011;51319;52.162;5.302;2023-05-08T03:31:16;111.05;;;16.10;;
43998;SDS011;51319;52.162;5.302;2023-05-08T03:33:47;88.60;;;16.33;;
43998;SDS011;51319;52.162;5.302;2023-05-08T03:36:17;227.27;;;18.70;;
43998;SDS011;51319;52.162;5.302;2023-05-08T03:38:44;107.22;;;16.80;;
43998;SDS011;51319;52.162;5.302;2023-05-08T03:41:12;116.63;;;15.25;;
43998;SDS011;51319;52.162;5.302;2023-05-08T03:43:39;113.03;;;16.52;;
43998;SDS011;51319;52.162;5.302;2023-05-08T03:46:07;67.93;;;16.35;;
43998;SDS011;51319;52.162;5.302;2023-05-08T03:48:35;79.47;;;15.75;;
43998;SDS011;51319;52.162;5.302;2023-05-08T03:51:04;73.88;;;15.88;;
43998;SDS011;51319;52.162;5.302;2023-05-08T03:53:31;150.75;;;17.58;;
43998;SDS011;51319;52.162;5.302;2023-05-08T03:55:58;125.03;;;16.83;;
43998;SDS011;51319;52.162;5.302;2023-05-08T04:01:49;68.15;;;15.75;;
43998;SDS011;51319;52.162;5.302;2023-05-08T04:04:38;84.18;;;16.45;;
43998;SDS011;51319;52.162;5.302;2023-05-08T04:12:16;174.65;;;17.33;;
43998;SDS011;51319;52.162;5.302;2023-05-08T04:14:52;193.00;;;17.50;;
43998;SDS011;51319;52.162;5.302;2023-05-08T04:17:26;147.52;;;17.70;;
43998;SDS011;51319;52.162;5.302;2023-05-08T04:20:04;307.05;;;20.80;;
43998;SDS011;51319;52.162;5.302;2023-05-08T04:22:35;300.73;;;21.50;;
43998;SDS011;51319;52.162;5.302;2023-05-08T04:25:05;249.40;;;20.83;;
43998;SDS011;51319;52.162;5.302;2023-05-08T04:27:34;280.77;;;19.88;;
43998;SDS011;51319;52.162;5.302;2023-05-08T04:30:02;252.00;;;20.33;;
43998;SDS011;51319;52.162;5.302;2023-05-08T04:32:30;108.55;;;17.35;;
43998;SDS011;51319;52.162;5.302;2023-05-08T04:35:00;172.77;;;18.98;;
43998;SDS011;51319;52.162;5.302;2023-05-08T04:37:28;115.28;;;18.63;;
43998;SDS011;51319;52.162;5.302;2023-05-08T04:40:16;54.53;;;15.60;;
43998;SDS011;51319;52.162;5.302;2023-05-08T04:42:43;45.05;;;16.02;;
43998;SDS011;51319;52.162;5.302;2023-05-08T04:45:13;46.05;;;15.20;;
43998;SDS011;51319;52.162;5.302;2023-05-08T04:47:40;28.92;;;14.15;;
43998;SDS011;51319;52.162;5.302;2023-05-08T04:50:08;30.92;;;14.40;;
43998;SDS011;51319;52.162;5.302;2023-05-08T04:52:35;22.55;;;13.70;;
43998;SDS011;51319;52.162;5.302;2023-05-08T04:55:03;19.05;;;13.32;;
43998;SDS011;51319;52.162;5.302;2023-05-08T04:57:32;16.25;;;14.23;;
43998;SDS011;51319;52.162;5.302;2023-05-08T04:59:59;16.40;;;13.98;;
43998;SDS011;51319;52.162;5.302;2023-05-08T05:02:30;14.15;;;12.85;;
43998;SDS011;51319;52.162;5.302;2023-05-08T05:04:57;15.02;;;13.52;;
43998;SDS011;51319;52.162;5.302;2023-05-08T05:07:26;15.10;;;13.50;;
43998;SDS011;51319;52.162;5.302;2023-05-08T05:09:53;15.98;;;13.13;;
43998;SDS011;51319;52.162;5.302;2023-05-08T05:12:20;12.60;;;11.40;;
43998;SDS011;51319;52.162;5.302;2023-05-08T05:14:47;14.25;;;10.82;;
43998;SDS011;51319;52.162;5.302;2023-05-08T05:17:14;12.73;;;11.57;;
43998;SDS011;51319;52.162;5.302;2023-05-08T05:19:41;15.98;;;12.20;;
43998;SDS011;51319;52.162;5.302;2023-05-08T05:22:08;14.30;;;12.65;;
43998;SDS011;51319;52.162;5.302;2023-05-08T05:24:35;16.02;;;12.73;;
43998;SDS011;51319;52.162;5.302;2023-05-08T05:27:04;14.30;;;12.90;;
43998;SDS011;51319;52.162;5.302;2023-05-08T05:29:31;14.13;;;12.63;;
43998;SDS011;51319;52.162;5.302;2023-05-08T05:32:00;15.38;;;13.88;;
43998;SDS011;51319;52.162;5.302;2023-05-08T05:34:28;14.95;;;13.55;;
43998;SDS011;51319;52.162;5.302;2023-05-08T05:36:55;15.32;;;13.85;;
43998;SDS011;51319;52.162;5.302;2023-05-08T05:39:22;18.95;;;14.55;;
43998;SDS011;51319;52.162;5.302;2023-05-08T05:41:50;19.85;;;14.45;;
43998;SDS011;51319;52.162;5.302;2023-05-08T05:44:18;16.30;;;14.60;;
43998;SDS011;51319;52.162;5.302;2023-05-08T05:46:45;17.13;;;14.65;;
43998;SDS011;51319;52.162;5.302;2023-05-08T05:49:12;18.25;;;15.35;;
43998;SDS011;51319;52.162;5.302;2023-05-08T05:51:39;16.33;;;14.73;;
43998;SDS011;51319;52.162;5.302;2023-05-08T05:54:06;16.70;;;14.48;;
43998;SDS011;51319;52.162;5.302;2023-05-08T05:56:33;17.38;;;15.57;;
43998;SDS011;51319;52.162;5.302;2023-05-08T05:59:00;16.70;;;11.68;;
43998;SDS011;51319;52.162;5.302;2023-05-08T06:01:27;17.08;;;15.27;;
43998;SDS011;51319;52.162;5.302;2023-05-08T06:03:54;21.77;;;16.02;;
43998;SDS011;51319;52.162;5.302;2023-05-08T06:06:21;21.33;;;17.45;;
43998;SDS011;51319;52.162;5.302;2023-05-08T06:08:48;20.45;;;16.90;;
43998;SDS011;51319;52.162;5.302;2023-05-08T06:11:15;17.63;;;15.43;;
43998;SDS011;51319;52.162;5.302;2023-05-08T06:13:42;17.58;;;15.77;;
43998;SDS011;51319;52.162;5.302;2023-05-08T06:16:09;20.50;;;16.65;;
43998;SDS011;51319;52.162;5.302;2023-05-08T06:18:39;18.83;;;16.60;;
43998;SDS011;51319;52.162;5.302;2023-05-08T06:21:06;19.63;;;16.13;;
43998;SDS011;51319;52.162;5.302;2023-05-08T06:23:33;19.40;;;16.75;;
43998;SDS011;51319;52.162;5.302;2023-05-08T06:26:00;21.95;;;16.90;;
43998;SDS011;51319;52.162;5.302;2023-05-08T06:28:27;21.38;;;15.43;;
43998;SDS011;51319;52.162;5.302;2023-05-08T06:30:54;18.33;;;15.60;;
43998;SDS011;51319;52.162;5.302;2023-05-08T06:33:21;18.40;;;15.23;;
43998;SDS011;51319;52.162;5.302;2023-05-08T06:35:51;18.20;;;15.73;;
43998;SDS011;51319;52.162;5.302;2023-05-08T06:38:18;14.13;;;12.70;;
43998;SDS011;51319;52.162;5.302;2023-05-08T06:40:46;17.20;;;15.48;;
43998;SDS011;51319;52.162;5.302;2023-05-08T06:43:15;14.52;;;13.13;;
43998;SDS011;51319;52.162;5.302;2023-05-08T06:45:42;16.08;;;14.52;;
43998;SDS011;51319;52.162;5.302;2023-05-08T06:48:10;15.80;;;14.20;;
43998;SDS011;51319;52.162;5.302;2023-05-08T06:50:37;17.50;;;15.57;;
43998;SDS011;51319;52.162;5.302;2023-05-08T06:53:05;18.10;;;15.35;;
43998;SDS011;51319;52.162;5.302;2023-05-08T06:55:32;18.35;;;16.45;;
43998;SDS011;51319;52.162;5.302;2023-05-08T06:58:00;17.65;;;15.77;;
43998;SDS011;51319;52.162;5.302;2023-05-08T07:00:29;18.52;;;16.50;;
43998;SDS011;51319;52.162;5.302;2023-05-08T07:02:56;21.13;;;16.20;;
43998;SDS011;51319;52.162;5.302;2023-05-08T07:05:24;22.90;;;16.55;;
43998;SDS011;51319;52.162;5.302;2023-05-08T07:07:51;29.92;;;18.13;;
43998;SDS011;51319;52.162;5.302;2023-05-08T07:10:22;19.25;;;17.30;;
43998;SDS011;51319;52.162;5.302;2023-05-08T07:12:49;22.27;;;19.92;;
43998;SDS011;51319;52.162;5.302;2023-05-08T07:15:16;21.75;;;18.88;;
43998;SDS011;51319;52.162;5.302;2023-05-08T07:17:52;25.02;;;20.80;;
43998;SDS011;51319;52.162;5.302;2023-05-08T07:20:19;21.98;;;18.67;;
43998;SDS011;51319;52.162;5.302;2023-05-08T07:22:47;31.10;;;20.02;;
43998;SDS011;51319;52.162;5.302;2023-05-08T07:25:14;22.75;;;20.35;;
43998;SDS011;51319;52.162;5.302;2023-05-08T07:27:42;22.42;;;20.10;;
43998;SDS011;51319;52.162;5.302;2023-05-08T07:30:09;25.45;;;20.95;;
43998;SDS011;51319;52.162;5.302;2023-05-08T07:32:37;22.85;;;20.45;;
43998;SDS011;51319;52.162;5.302;2023-05-08T07:35:05;25.52;;;21.85;;
43998;SDS011;51319;52.162;5.302;2023-05-08T07:37:36;30.65;;;22.45;;
43998;SDS011;51319;52.162;5.302;2023-05-08T07:40:04;28.83;;;21.85;;
43998;SDS011;51319;52.162;5.302;2023-05-08T07:42:37;27.25;;;21.98;;
43998;SDS011;51319;52.162;5.302;2023-05-08T07:45:06;27.42;;;22.58;;
43998;SDS011;51319;52.162;5.302;2023-05-08T07:47:34;25.55;;;22.75;;
43998;SDS011;51319;52.162;5.302;2023-05-08T07:50:01;28.95;;;24.17;;
43998;SDS011;51319;52.162;5.302;2023-05-08T07:52:28;30.77;;;25.52;;
43998;SDS011;51319;52.162;5.302;2023-05-08T07:54:55;31.98;;;25.02;;
43998;SDS011;51319;52.162;5.302;2023-05-08T07:57:23;31.13;;;24.80;;
43998;SDS011;51319;52.162;5.302;2023-05-08T07:59:50;34.08;;;25.65;;
43998;SDS011;51319;52.162;5.302;2023-05-08T08:02:17;34.00;;;26.30;;
43998;SDS011;51319;52.162;5.302;2023-05-08T08:04:44;37.25;;;27.15;;
43998;SDS011;51319;52.162;5.302;2023-05-08T08:07:11;37.95;;;28.95;;
43998;SDS011;51319;52.162;5.302;2023-05-08T08:09:38;41.05;;;29.33;;
43998;SDS011;51319;52.162;5.302;2023-05-08T08:12:05;37.13;;;29.13;;
43998;SDS011;51319;52.162;5.302;2023-05-08T08:14:32;40.88;;;30.65;;
43998;SDS011;51319;52.162;5.302;2023-05-08T08:17:02;39.80;;;29.77;;
43998;SDS011;51319;52.162;5.302;2023-05-08T08:19:29;39.13;;;30.63;;
43998;SDS011;51319;52.162;5.302;2023-05-08T08:21:56;40.17;;;29.48;;
43998;SDS011;51319;52.162;5.302;2023-05-08T08:24:23;35.42;;;29.63;;
43998;SDS011;51319;52.162;5.302;2023-05-08T08:26:50;37.38;;;29.17;;
43998;SDS011;51319;52.162;5.302;2023-05-08T08:29:19;43.58;;;29.35;;
43998;SDS011;51319;52.162;5.302;2023-05-08T08:31:49;42.30;;;30.63;;
43998;SDS011;51319;52.162;5.302;2023-05-08T08:34:16;46.28;;;32.20;;
43998;SDS011;51319;52.162;5.302;2023-05-08T08:36:44;44.53;;;30.70;;
43998;SDS011;51319;52.162;5.302;2023-05-08T08:39:15;44.28;;;31.42;;
43998;SDS011;51319;52.162;5.302;2023-05-08T08:41:42;34.97;;;29.33;;
43998;SDS011;51319;52.162;5.302;2023-05-08T08:44:09;34.40;;;30.35;;
43998;SDS011;51319;52.162;5.302;2023-05-08T08:46:37;35.03;;;29.48;;
43998;SDS011;51319;52.162;5.302;2023-05-08T08:49:09;37.42;;;29.48;;
43998;SDS011;51319;52.162;5.302;2023-05-08T08:51:48;36.00;;;29.25;;
43998;SDS011;51319;52.162;5.302;2023-05-08T08:54:22;34.33;;;30.08;;
43998;SDS011;51319;52.162;5.302;2023-05-08T08:56:50;37.47;;;30.10;;
43998;SDS011;51319;52.162;5.302;2023-05-08T08:59:18;38.90;;;30.08;;
43998;SDS011;51319;52.162;5.302;2023-05-08T09:01:49;39.47;;;31.65;;
43998;SDS011;51319;52.162;5.302;2023-05-08T09:04:20;42.90;;;32.47;;
43998;SDS011;51319;52.162;5.302;2023-05-08T09:06:48;39.85;;;31.10;;
43998;SDS011;51319;52.162;5.302;2023-05-08T09:09:16;37.83;;;30.75;;
43998;SDS011;51319;52.162;5.302;2023-05-08T09:11:43;37.03;;;29.15;;
43998;SDS011;51319;52.162;5.302;2023-05-08T09:14:11;44.53;;;31.38;;
43998;SDS011;51319;52.162;5.302;2023-05-08T09:16:38;37.63;;;30.73;;
43998;SDS011;51319;52.162;5.302;2023-05-08T09:19:05;42.55;;;32.30;;
43998;SDS011;51319;52.162;5.302;2023-05-08T09:21:33;37.15;;;30.60;;
43998;SDS011;51319;52.162;5.302;2023-05-08T09:24:03;39.40;;;31.17;;
43998;SDS011;51319;52.162;5.302;2023-05-08T09:26:41;37.67;;;32.15;;
43998;SDS011;51319;52.162;5.302;2023-05-08T09:29:08;41.47;;;29.30;;
43998;SDS011;51319;52.162;5.302;2023-05-08T09:31:48;38.05;;;31.05;;
43998;SDS011;51319;52.162;5.302;2023-05-08T09:34:26;35.95;;;30.10;;
43998;SDS011;51319;52.162;5.302;2023-05-08T09:37:09;37.55;;;29.88;;
43998;SDS011;51319;52.162;5.302;2023-05-08T09:39:37;39.50;;;31.67;;
43998;SDS011;51319;52.162;5.302;2023-05-08T09:42:09;40.22;;;30.85;;
43998;SDS011;51319;52.162;5.302;2023-05-08T09:44:52;47.42;;;33.72;;
43998;SDS011;51319;52.162;5.302;2023-05-08T09:47:20;43.25;;;32.42;;
43998;SDS011;51319;52.162;5.302;2023-05-08T09:52:36;46.25;;;33.13;;
43998;SDS011;51319;52.162;5.302;2023-05-08T09:55:09;41.90;;;31.45;;
43998;SDS011;51319;52.162;5.302;2023-05-08T09:57:37;49.35;;;32.92;;
43998;SDS011;51319;52.162;5.302;2023-05-08T10:00:09;47.45;;;34.65;;
43998;SDS011;51319;52.162;5.302;2023-05-08T10:02:39;47.95;;;34.83;;
43998;SDS011;51319;52.162;5.302;2023-05-08T10:07:42;48.65;;;35.70;;
43998;SDS011;51319;52.162;5.302;2023-05-08T10:10:09;51.20;;;37.22;;
43998;SDS011;51319;52.162;5.302;2023-05-08T10:12:36;55.95;;;39.13;;
43998;SDS011;51319;52.162;5.302;2023-05-08T10:15:07;64.13;;;39.50;;
43998;SDS011;51319;52.162;5.302;2023-05-08T10:24:14;58.20;;;40.28;;
43998;SDS011;51319;52.162;5.302;2023-05-08T10:27:04;63.95;;;42.78;;
43998;SDS011;51319;52.162;5.302;2023-05-08T10:29:53;58.95;;;43.15;;
43998;SDS011;51319;52.162;5.302;2023-05-08T10:32:22;65.75;;;44.95;;
43998;SDS011;51319;52.162;5.302;2023-05-08T10:34:57;65.25;;;44.47;;
43998;SDS011;51319;52.162;5.302;2023-05-08T10:37:26;68.28;;;44.95;;
43998;SDS011;51319;52.162;5.302;2023-05-08T10:39:56;63.60;;;46.30;;
43998;SDS011;51319;52.162;5.302;2023-05-08T10:42:25;65.60;;;46.55;;
43998;SDS011;51319;52.162;5.302;2023-05-08T10:44:53;74.32;;;51.58;;
43998;SDS011;51319;52.162;5.302;2023-05-08T10:53:02;70.68;;;49.95;;
43998;SDS011;51319;52.162;5.302;2023-05-08T10:55:34;70.30;;;50.08;;
43998;SDS011;51319;52.162;5.302;2023-05-08T10:58:03;70.97;;;49.20;;
43998;SDS011;51319;52.162;5.302;2023-05-08T11:00:32;74.63;;;49.90;;
43998;SDS011;51319;52.162;5.302;2023-05-08T11:03:19;72.18;;;50.58;;
43998;SDS011;51319;52.162;5.302;2023-05-08T11:09:45;71.93;;;50.78;;
43998;SDS011;51319;52.162;5.302;2023-05-08T11:12:24;69.32;;;49.50;;
43998;SDS011;51319;52.162;5.302;2023-05-08T11:14:54;67.85;;;48.72;;
43998;SDS011;51319;52.162;5.302;2023-05-08T11:17:30;72.93;;;50.67;;
43998;SDS011;51319;52.162;5.302;2023-05-08T11:20:02;70.55;;;47.63;;
43998;SDS011;51319;52.162;5.302;2023-05-08T11:22:34;67.45;;;48.65;;
43998;SDS011;51319;52.162;5.302;2023-05-08T11:30:17;68.25;;;46.80;;
43998;SDS011;51319;52.162;5.302;2023-05-08T11:43:32;73.45;;;51.38;;
43998;SDS011;51319;52.162;5.302;2023-05-08T11:46:20;78.82;;;53.13;;
43998;SDS011;51319;52.162;5.302;2023-05-08T11:48:47;68.90;;;49.35;;
43998;SDS011;51319;52.162;5.302;2023-05-08T11:51:15;70.20;;;50.63;;
43998;SDS011;51319;52.162;5.302;2023-05-08T11:53:47;74.07;;;51.75;;
43998;SDS011;51319;52.162;5.302;2023-05-08T11:56:14;68.93;;;49.15;;
43998;SDS011;51319;52.162;5.302;2023-05-08T11:58:41;68.05;;;48.42;;
43998;SDS011;51319;52.162;5.302;2023-05-08T12:01:09;66.35;;;47.90;;
43998;SDS011;51319;52.162;5.302;2023-05-08T12:03:37;60.75;;;44.67;;
43998;SDS011;51319;52.162;5.302;2023-05-08T12:06:06;56.83;;;41.95;;
43998;SDS011;51319;52.162;5.302;2023-05-08T12:08:36;56.92;;;41.75;;
43998;SDS011;51319;52.162;5.302;2023-05-08T12:11:07;42.53;;;31.38;;
43998;SDS011;51319;52.162;5.302;2023-05-08T12:13:35;58.95;;;42.30;;
43998;SDS011;51319;52.162;5.302;2023-05-08T12:16:02;62.97;;;44.88;;
43998;SDS011;51319;52.162;5.302;2023-05-08T12:18:29;51.97;;;40.95;;
43998;SDS011;51319;52.162;5.302;2023-05-08T12:21:02;62.17;;;43.22;;
43998;SDS011;51319;52.162;5.302;2023-05-08T12:23:30;54.83;;;41.97;;
43998;SDS011;51319;52.162;5.302;2023-05-08T12:25:57;52.03;;;38.67;;
43998;SDS011;51319;52.162;5.302;2023-05-08T12:28:26;49.05;;;37.45;;
43998;SDS011;51319;52.162;5.302;2023-05-08T12:30:54;47.78;;;38.10;;
43998;SDS011;51319;52.162;5.302;2023-05-08T12:33:21;51.72;;;36.80;;
43998;SDS011;51319;52.162;5.302;2023-05-08T12:35:49;53.60;;;38.72;;
43998;SDS011;51319;52.162;5.302;2023-05-08T12:38:18;47.70;;;36.72;;
43998;SDS011;51319;52.162;5.302;2023-05-08T12:40:45;48.38;;;36.05;;
43998;SDS011;51319;52.162;5.302;2023-05-08T12:43:18;45.15;;;34.63;;
43998;SDS011;51319;52.162;5.302;2023-05-08T12:45:45;47.33;;;36.03;;
43998;SDS011;51319;52.162;5.302;2023-05-08T12:48:16;52.05;;;37.55;;
43998;SDS011;51319;52.162;5.302;2023-05-08T12:50:44;44.75;;;36.30;;
43998;SDS011;51319;52.162;5.302;2023-05-08T12:53:12;48.03;;;35.28;;
43998;SDS011;51319;52.162;5.302;2023-05-08T12:55:54;46.92;;;37.20;;
43998;SDS011;51319;52.162;5.302;2023-05-08T12:58:26;47.50;;;35.30;;
43998;SDS011;51319;52.162;5.302;2023-05-08T13:01:03;44.97;;;34.22;;
43998;SDS011;51319;52.162;5.302;2023-05-08T13:03:39;46.55;;;34.85;;
43998;SDS011;51319;52.162;5.302;2023-05-08T13:06:17;44.75;;;34.35;;
43998;SDS011;51319;52.162;5.302;2023-05-08T13:08:51;42.83;;;32.28;;
43998;SDS011;51319;52.162;5.302;2023-05-08T13:11:30;44.17;;;34.22;;
43998;SDS011;51319;52.162;5.302;2023-05-08T13:13:58;45.38;;;32.88;;
43998;SDS011;51319;52.162;5.302;2023-05-08T13:16:26;45.58;;;34.38;;
43998;SDS011;51319;52.162;5.302;2023-05-08T13:18:58;41.83;;;30.73;;
43998;SDS011;51319;52.162;5.302;2023-05-08T13:21:25;40.08;;;28.50;;
43998;SDS011;51319;52.162;5.302;2023-05-08T13:23:53;36.47;;;26.92;;
43998;SDS011;51319;52.162;5.302;2023-05-08T13:26:22;36.33;;;25.95;;
43998;SDS011;51319;52.162;5.302;2023-05-08T13:28:50;37.22;;;25.63;;
43998;SDS011;51319;52.162;5.302;2023-05-08T13:31:21;36.30;;;27.50;;
43998;SDS011;51319;52.162;5.302;2023-05-08T13:33:48;42.60;;;27.48;;
43998;SDS011;51319;52.162;5.302;2023-05-08T13:36:15;43.50;;;27.63;;
43998;SDS011;51319;52.162;5.302;2023-05-08T13:38:42;36.47;;;26.95;;
43998;SDS011;51319;52.162;5.302;2023-05-08T13:41:09;38.03;;;29.80;;
43998;SDS011;51319;52.162;5.302;2023-05-08T13:43:36;34.67;;;26.08;;
43998;SDS011;51319;52.162;5.302;2023-05-08T13:46:04;36.67;;;24.50;;
43998;SDS011;51319;52.162;5.302;2023-05-08T13:48:32;32.40;;;23.80;;
43998;SDS011;51319;52.162;5.302;2023-05-08T13:50:59;36.55;;;24.25;;
43998;SDS011;51319;52.162;5.302;2023-05-08T13:53:31;33.20;;;24.08;;
43998;SDS011;51319;52.162;5.302;2023-05-08T13:55:58;35.33;;;25.00;;
43998;SDS011;51319;52.162;5.302;2023-05-08T13:58:26;41.35;;;24.67;;
43998;SDS011;51319;52.162;5.302;2023-05-08T14:00:56;39.80;;;25.47;;
43998;SDS011;51319;52.162;5.302;2023-05-08T14:03:26;34.22;;;24.75;;
43998;SDS011;51319;52.162;5.302;2023-05-08T14:05:53;33.08;;;23.80;;
43998;SDS011;51319;52.162;5.302;2023-05-08T14:08:20;33.78;;;23.27;;
43998;SDS011;51319;52.162;5.302;2023-05-08T14:10:47;35.35;;;24.17;;
43998;SDS011;51319;52.162;5.302;2023-05-08T14:13:17;48.50;;;31.75;;
43998;SDS011;51319;52.162;5.302;2023-05-08T14:16:00;30.30;;;21.42;;
43998;SDS011;51319;52.162;5.302;2023-05-08T14:18:33;35.88;;;25.92;;
43998;SDS011;51319;52.162;5.302;2023-05-08T14:21:00;27.88;;;21.15;;
43998;SDS011;51319;52.162;5.302;2023-05-08T14:23:27;34.80;;;22.13;;
43998;SDS011;51319;52.162;5.302;2023-05-08T14:25:54;31.17;;;23.00;;
43998;SDS011;51319;52.162;5.302;2023-05-08T14:28:21;32.22;;;22.13;;
43998;SDS011;51319;52.162;5.302;2023-05-08T14:30:51;32.15;;;22.48;;
43998;SDS011;51319;52.162;5.302;2023-05-08T14:33:18;28.52;;;20.88;;
43998;SDS011;51319;52.162;5.302;2023-05-08T14:35:46;31.63;;;22.15;;
43998;SDS011;51319;52.162;5.302;2023-05-08T14:38:13;31.00;;;21.83;;
43998;SDS011;51319;52.162;5.302;2023-05-08T14:40:40;55.70;;;37.40;;
43998;SDS011;51319;52.162;5.302;2023-05-08T14:43:08;33.70;;;24.17;;
43998;SDS011;51319;52.162;5.302;2023-05-08T14:45:35;34.58;;;23.38;;
43998;SDS011;51319;52.162;5.302;2023-05-08T14:48:02;33.60;;;24.45;;
43998;SDS011;51319;52.162;5.302;2023-05-08T14:50:29;33.85;;;23.83;;
43998;SDS011;51319;52.162;5.302;2023-05-08T14:52:56;31.40;;;23.90;;
43998;SDS011;51319;52.162;5.302;2023-05-08T14:55:24;31.13;;;24.02;;
43998;SDS011;51319;52.162;5.302;2023-05-08T14:57:51;32.30;;;24.42;;
43998;SDS011;51319;52.162;5.302;2023-05-08T15:00:18;35.20;;;24.17;;
43998;SDS011;51319;52.162;5.302;2023-05-08T15:02:47;34.45;;;24.65;;
43998;SDS011;51319;52.162;5.302;2023-05-08T15:05:14;34.80;;;24.30;;
43998;SDS011;51319;52.162;5.302;2023-05-08T15:10:13;30.83;;;24.17;;
43998;SDS011;51319;52.162;5.302;2023-05-08T15:12:40;30.95;;;23.27;;
43998;SDS011;51319;52.162;5.302;2023-05-08T15:15:07;34.13;;;24.30;;
43998;SDS011;51319;52.162;5.302;2023-05-08T15:17:34;32.83;;;24.17;;
43998;SDS011;51319;52.162;5.302;2023-05-08T15:20:02;29.65;;;23.33;;
43998;SDS011;51319;52.162;5.302;2023-05-08T15:22:30;33.65;;;24.05;;
43998;SDS011;51319;52.162;5.302;2023-05-08T15:24:56;26.75;;;21.90;;
43998;SDS011;51319;52.162;5.302;2023-05-08T15:27:28;34.90;;;23.55;;
43998;SDS011;51319;52.162;5.302;2023-05-08T15:29:55;31.52;;;22.88;;
43998;SDS011;51319;52.162;5.302;2023-05-08T15:32:23;33.90;;;23.20;;
43998;SDS011;51319;52.162;5.302;2023-05-08T15:34:50;33.60;;;23.27;;
43998;SDS011;51319;52.162;5.302;2023-05-08T15:37:17;33.83;;;24.58;;
43998;SDS011;51319;52.162;5.302;2023-05-08T15:39:44;32.33;;;22.02;;
43998;SDS011;51319;52.162;5.302;2023-05-08T15:42:11;32.85;;;24.73;;
43998;SDS011;51319;52.162;5.302;2023-05-08T15:44:38;31.27;;;23.17;;
43998;SDS011;51319;52.162;5.302;2023-05-08T15:47:20;31.52;;;24.38;;